sensor_id;sensor_type;location;lat;lon;timestamp;temperature;humidity
57709;SHT35;42558;52.388;13.390;2023-10-31T00:02:04;11.62;87.60
57709;SHT35;42558;52.388;13.390;2023-10-31T00:04:32;11.61;87.50
57709;SHT35;42558;52.388;13.390;2023-10-31T00:07:01;11.60;87.57
57709;SHT35;42558;52.388;13.390;2023-10-31T00:09:29;11.59;87.61
57709;SHT35;42558;52.388;13.390;2023-10-31T00:11:58;11.58;87.76
57709;SHT35;42558;52.388;13.390;2023-10-31T00:14:26;11.52;88.09
57709;SHT35;42558;52.388;13.390;2023-10-31T00:16:58;11.52;88.12
57709;SHT35;42558;52.388;13.390;2023-10-31T00:19:26;11.50;88.15
57709;SHT35;42558;52.388;13.390;2023-10-31T00:21:54;11.52;88.23
57709;SHT35;42558;52.388;13.390;2023-10-31T00:24:23;11.52;88.23
57709;SHT35;42558;52.388;13.390;2023-10-31T00:26:51;11.52;88.28
57709;SHT35;42558;52.388;13.390;2023-10-31T00:29:19;11.53;88.30
57709;SHT35;42558;52.388;13.390;2023-10-31T00:31:48;11.53;88.35
57709;SHT35;42558;52.388;13.390;2023-10-31T00:34:16;11.52;88.42
57709;SHT35;42558;52.388;13.390;2023-10-31T00:36:45;11.53;88.47
57709;SHT35;42558;52.388;13.390;2023-10-31T00:39:13;11.50;88.53
57709;SHT35;42558;52.388;13.390;2023-10-31T00:41:45;11.45;88.67
57709;SHT35;42558;52.388;13.390;2023-10-31T00:44:15;11.47;88.84
57709;SHT35;42558;52.388;13.390;2023-10-31T00:46:45;11.44;89.12
57709;SHT35;42558;52.388;13.390;2023-10-31T00:49:15;11.46;89.13
57709;SHT35;42558;52.388;13.390;2023-10-31T00:51:45;11.45;89.22
57709;SHT35;42558;52.388;13.390;2023-10-31T00:54:15;11.43;89.27
57709;SHT35;42558;52.388;13.390;2023-10-31T00:56:45;11.42;89.30
57709;SHT35;42558;52.388;13.390;2023-10-31T00:59:15;11.43;89.34
57709;SHT35;42558;52.388;13.390;2023-10-31T01:01:45;11.45;89.42
57709;SHT35;42558;52.388;13.390;2023-10-31T01:04:15;11.42;89.31
57709;SHT35;42558;52.388;13.390;2023-10-31T01:06:45;11.42;89.46
57709;SHT35;42558;52.388;13.390;2023-10-31T01:09:14;11.44;89.51
57709;SHT35;42558;52.388;13.390;2023-10-31T01:11:44;11.46;89.50
57709;SHT35;42558;52.388;13.390;2023-10-31T01:14:14;11.47;89.41
57709;SHT35;42558;52.388;13.390;2023-10-31T01:16:44;11.48;89.34
57709;SHT35;42558;52.388;13.390;2023-10-31T01:19:14;11.48;89.28
57709;SHT35;42558;52.388;13.390;2023-10-31T01:21:44;11.48;89.32
57709;SHT35;42558;52.388;13.390;2023-10-31T01:24:14;11.48;89.24
57709;SHT35;42558;52.388;13.390;2023-10-31T01:26:44;11.47;89.21
57709;SHT35;42558;52.388;13.390;2023-10-31T01:29:14;11.36;90.19
57709;SHT35;42558;52.388;13.390;2023-10-31T01:31:44;11.26;90.68
57709;SHT35;42558;52.388;13.390;2023-10-31T01:34:28;11.28;90.54
57709;SHT35;42558;52.388;13.390;2023-10-31T01:36:58;11.31;90.59
57709;SHT35;42558;52.388;13.390;2023-10-31T01:39:27;11.35;90.54
57709;SHT35;42558;52.388;13.390;2023-10-31T01:41:57;11.37;90.44
57709;SHT35;42558;52.388;13.390;2023-10-31T01:44:27;11.36;90.40
57709;SHT35;42558;52.388;13.390;2023-10-31T01:46:57;11.37;90.42
57709;SHT35;42558;52.388;13.390;2023-10-31T01:49:27;11.38;90.50
57709;SHT35;42558;52.388;13.390;2023-10-31T01:51:58;11.38;90.51
57709;SHT35;42558;52.388;13.390;2023-10-31T01:54:36;11.37;90.60
57709;SHT35;42558;52.388;13.390;2023-10-31T01:57:07;11.39;90.66
57709;SHT35;42558;52.388;13.390;2023-10-31T01:59:37;11.39;90.57
57709;SHT35;42558;52.388;13.390;2023-10-31T02:02:08;11.32;90.25
57709;SHT35;42558;52.388;13.390;2023-10-31T02:04:39;11.26;90.48
57709;SHT35;42558;52.388;13.390;2023-10-31T02:07:09;11.23;90.85
57709;SHT35;42558;52.388;13.390;2023-10-31T02:09:39;11.24;90.86
57709;SHT35;42558;52.388;13.390;2023-10-31T02:12:09;11.27;91.01
57709;SHT35;42558;52.388;13.390;2023-10-31T02:14:39;11.28;91.00
57709;SHT35;42558;52.388;13.390;2023-10-31T02:17:09;11.27;90.99
57709;SHT35;42558;52.388;13.390;2023-10-31T02:19:39;11.28;91.05
57709;SHT35;42558;52.388;13.390;2023-10-31T02:22:09;11.30;91.10
57709;SHT35;42558;52.388;13.390;2023-10-31T02:24:37;11.33;91.11
57709;SHT35;42558;52.388;13.390;2023-10-31T02:27:05;11.34;91.11
57709;SHT35;42558;52.388;13.390;2023-10-31T02:29:34;11.35;91.03
57709;SHT35;42558;52.388;13.390;2023-10-31T02:32:02;11.31;90.92
57709;SHT35;42558;52.388;13.390;2023-10-31T02:34:31;11.29;90.95
57709;SHT35;42558;52.388;13.390;2023-10-31T02:36:59;11.30;91.01
57709;SHT35;42558;52.388;13.390;2023-10-31T02:39:27;11.29;91.12
57709;SHT35;42558;52.388;13.390;2023-10-31T02:41:56;11.31;91.20
57709;SHT35;42558;52.388;13.390;2023-10-31T02:44:24;11.28;91.19
57709;SHT35;42558;52.388;13.390;2023-10-31T02:46:53;11.27;91.24
57709;SHT35;42558;52.388;13.390;2023-10-31T02:49:21;11.27;91.30
57709;SHT35;42558;52.388;13.390;2023-10-31T02:51:49;11.28;91.32
57709;SHT35;42558;52.388;13.390;2023-10-31T02:54:18;11.29;91.30
57709;SHT35;42558;52.388;13.390;2023-10-31T02:56:46;11.28;91.30
57709;SHT35;42558;52.388;13.390;2023-10-31T02:59:15;11.28;91.30
57709;SHT35;42558;52.388;13.390;2023-10-31T03:01:43;11.28;91.30
57709;SHT35;42558;52.388;13.390;2023-10-31T03:04:12;11.29;91.38
57709;SHT35;42558;52.388;13.390;2023-10-31T03:06:40;11.31;91.33
57709;SHT35;42558;52.388;13.390;2023-10-31T03:09:08;11.30;91.27
57709;SHT35;42558;52.388;13.390;2023-10-31T03:11:37;11.27;91.15
57709;SHT35;42558;52.388;13.390;2023-10-31T03:14:05;11.28;91.20
57709;SHT35;42558;52.388;13.390;2023-10-31T03:16:34;11.28;91.18
57709;SHT35;42558;52.388;13.390;2023-10-31T03:19:02;11.27;91.14
57709;SHT35;42558;52.388;13.390;2023-10-31T03:21:31;11.26;91.20
57709;SHT35;42558;52.388;13.390;2023-10-31T03:23:59;11.22;91.25
57709;SHT35;42558;52.388;13.390;2023-10-31T03:26:27;11.21;91.37
57709;SHT35;42558;52.388;13.390;2023-10-31T03:28:56;11.23;91.47
57709;SHT35;42558;52.388;13.390;2023-10-31T03:31:27;11.21;91.51
57709;SHT35;42558;52.388;13.390;2023-10-31T03:33:56;11.20;91.51
57709;SHT35;42558;52.388;13.390;2023-10-31T03:36:24;11.19;91.56
57709;SHT35;42558;52.388;13.390;2023-10-31T03:38:52;11.18;91.61
57709;SHT35;42558;52.388;13.390;2023-10-31T03:41:21;11.20;91.69
57709;SHT35;42558;52.388;13.390;2023-10-31T03:43:49;11.19;91.71
57709;SHT35;42558;52.388;13.390;2023-10-31T03:46:18;11.20;91.77
57709;SHT35;42558;52.388;13.390;2023-10-31T03:48:46;11.20;91.76
57709;SHT35;42558;52.388;13.390;2023-10-31T03:51:14;11.16;91.72
57709;SHT35;42558;52.388;13.390;2023-10-31T03:53:43;11.15;91.79
57709;SHT35;42558;52.388;13.390;2023-10-31T03:56:11;11.16;91.86
57709;SHT35;42558;52.388;13.390;2023-10-31T03:58:40;11.17;91.89
57709;SHT35;42558;52.388;13.390;2023-10-31T04:01:12;11.16;91.90
57709;SHT35;42558;52.388;13.390;2023-10-31T04:03:43;11.18;91.91
57709;SHT35;42558;52.388;13.390;2023-10-31T04:06:13;11.18;91.98
57709;SHT35;42558;52.388;13.390;2023-10-31T04:08:43;11.19;92.03
57709;SHT35;42558;52.388;13.390;2023-10-31T04:11:13;11.19;92.03
57709;SHT35;42558;52.388;13.390;2023-10-31T04:13:43;11.20;92.04
57709;SHT35;42558;52.388;13.390;2023-10-31T04:16:13;11.19;92.08
57709;SHT35;42558;52.388;13.390;2023-10-31T04:18:43;11.21;92.09
57709;SHT35;42558;52.388;13.390;2023-10-31T04:21:12;11.21;92.10
57709;SHT35;42558;52.388;13.390;2023-10-31T04:23:42;11.23;92.16
57709;SHT35;42558;52.388;13.390;2023-10-31T04:26:12;11.21;92.12
57709;SHT35;42558;52.388;13.390;2023-10-31T04:28:42;11.20;92.15
57709;SHT35;42558;52.388;13.390;2023-10-31T04:31:12;11.20;92.20
57709;SHT35;42558;52.388;13.390;2023-10-31T04:33:42;11.21;92.20
57709;SHT35;42558;52.388;13.390;2023-10-31T04:36:12;11.21;92.23
57709;SHT35;42558;52.388;13.390;2023-10-31T04:38:42;11.23;92.28
57709;SHT35;42558;52.388;13.390;2023-10-31T04:41:12;11.25;92.31
57709;SHT35;42558;52.388;13.390;2023-10-31T04:43:42;11.26;92.35
57709;SHT35;42558;52.388;13.390;2023-10-31T04:46:12;11.27;92.38
57709;SHT35;42558;52.388;13.390;2023-10-31T04:48:42;11.29;92.39
57709;SHT35;42558;52.388;13.390;2023-10-31T04:51:11;11.30;92.40
57709;SHT35;42558;52.388;13.390;2023-10-31T04:53:39;11.30;92.49
57709;SHT35;42558;52.388;13.390;2023-10-31T04:56:17;11.29;92.50
57709;SHT35;42558;52.388;13.390;2023-10-31T04:58:47;11.33;92.57
57709;SHT35;42558;52.388;13.390;2023-10-31T05:01:17;11.34;92.62
57709;SHT35;42558;52.388;13.390;2023-10-31T05:03:46;11.35;92.69
57709;SHT35;42558;52.388;13.390;2023-10-31T05:06:22;11.37;92.74
57709;SHT35;42558;52.388;13.390;2023-10-31T05:08:52;11.39;92.82
57709;SHT35;42558;52.388;13.390;2023-10-31T05:11:23;11.42;92.91
57709;SHT35;42558;52.388;13.390;2023-10-31T05:13:52;11.43;92.95
57709;SHT35;42558;52.388;13.390;2023-10-31T05:16:22;11.46;93.00
57709;SHT35;42558;52.388;13.390;2023-10-31T05:18:52;11.47;93.00
57709;SHT35;42558;52.388;13.390;2023-10-31T05:21:22;11.47;93.00
57709;SHT35;42558;52.388;13.390;2023-10-31T05:23:52;11.48;93.00
57709;SHT35;42558;52.388;13.390;2023-10-31T05:26:22;11.49;93.02
57709;SHT35;42558;52.388;13.390;2023-10-31T05:28:52;11.50;93.00
57709;SHT35;42558;52.388;13.390;2023-10-31T05:31:22;11.48;92.97
57709;SHT35;42558;52.388;13.390;2023-10-31T05:33:53;11.48;92.99
57709;SHT35;42558;52.388;13.390;2023-10-31T05:36:23;11.49;93.03
57709;SHT35;42558;52.388;13.390;2023-10-31T05:38:54;11.50;93.03
57709;SHT35;42558;52.388;13.390;2023-10-31T05:41:24;11.52;93.07
57709;SHT35;42558;52.388;13.390;2023-10-31T05:43:54;11.53;93.09
57709;SHT35;42558;52.388;13.390;2023-10-31T05:46:24;11.54;93.10
57709;SHT35;42558;52.388;13.390;2023-10-31T05:48:54;11.57;93.17
57709;SHT35;42558;52.388;13.390;2023-10-31T05:51:23;11.59;93.19
57709;SHT35;42558;52.388;13.390;2023-10-31T05:53:54;11.63;93.28
57709;SHT35;42558;52.388;13.390;2023-10-31T05:56:24;11.65;93.26
57709;SHT35;42558;52.388;13.390;2023-10-31T05:58:54;11.66;93.25
57709;SHT35;42558;52.388;13.390;2023-10-31T06:01:23;11.69;93.30
57709;SHT35;42558;52.388;13.390;2023-10-31T06:03:53;11.72;93.39
57709;SHT35;42558;52.388;13.390;2023-10-31T06:06:23;11.73;93.40
57709;SHT35;42558;52.388;13.390;2023-10-31T06:08:53;11.74;93.41
57709;SHT35;42558;52.388;13.390;2023-10-31T06:11:23;11.75;93.46
57709;SHT35;42558;52.388;13.390;2023-10-31T06:13:53;11.80;93.51
57709;SHT35;42558;52.388;13.390;2023-10-31T06:16:23;11.83;93.60
57709;SHT35;42558;52.388;13.390;2023-10-31T06:18:53;11.84;93.60
57709;SHT35;42558;52.388;13.390;2023-10-31T06:21:23;11.85;93.60
57709;SHT35;42558;52.388;13.390;2023-10-31T06:23:52;11.89;93.64
57709;SHT35;42558;52.388;13.390;2023-10-31T06:26:22;11.91;93.64
57709;SHT35;42558;52.388;13.390;2023-10-31T06:28:52;11.94;93.67
57709;SHT35;42558;52.388;13.390;2023-10-31T06:31:42;11.97;93.70
57709;SHT35;42558;52.388;13.390;2023-10-31T06:34:12;12.00;93.74
57709;SHT35;42558;52.388;13.390;2023-10-31T06:36:42;12.03;93.76
57709;SHT35;42558;52.388;13.390;2023-10-31T06:39:12;12.07;93.80
57709;SHT35;42558;52.388;13.390;2023-10-31T06:41:42;12.11;93.81
57709;SHT35;42558;52.388;13.390;2023-10-31T06:44:10;12.13;93.80
57709;SHT35;42558;52.388;13.390;2023-10-31T06:46:39;12.16;93.80
57709;SHT35;42558;52.388;13.390;2023-10-31T06:49:07;12.19;93.80
57709;SHT35;42558;52.388;13.390;2023-10-31T06:51:36;12.20;93.79
57709;SHT35;42558;52.388;13.390;2023-10-31T06:54:04;12.22;93.79
57709;SHT35;42558;52.388;13.390;2023-10-31T06:56:32;12.24;93.79
57709;SHT35;42558;52.388;13.390;2023-10-31T06:59:00;12.28;93.73
57709;SHT35;42558;52.388;13.390;2023-10-31T07:01:27;12.29;93.70
57709;SHT35;42558;52.388;13.390;2023-10-31T07:03:55;12.31;93.67
57709;SHT35;42558;52.388;13.390;2023-10-31T07:06:24;12.32;93.62
57709;SHT35;42558;52.388;13.390;2023-10-31T07:08:52;12.35;93.60
57709;SHT35;42558;52.388;13.390;2023-10-31T07:11:21;12.38;93.58
57709;SHT35;42558;52.388;13.390;2023-10-31T07:13:49;12.37;93.60
57709;SHT35;42558;52.388;13.390;2023-10-31T07:16:17;12.38;93.58
57709;SHT35;42558;52.388;13.390;2023-10-31T07:18:46;12.38;93.54
57709;SHT35;42558;52.388;13.390;2023-10-31T07:21:14;12.37;93.54
57709;SHT35;42558;52.388;13.390;2023-10-31T07:23:43;12.38;93.60
57709;SHT35;42558;52.388;13.390;2023-10-31T07:26:11;12.37;93.59
57709;SHT35;42558;52.388;13.390;2023-10-31T07:28:40;12.35;93.53
57709;SHT35;42558;52.388;13.390;2023-10-31T07:31:08;12.36;93.07
57709;SHT35;42558;52.388;13.390;2023-10-31T07:33:36;12.34;92.39
57709;SHT35;42558;52.388;13.390;2023-10-31T07:36:05;12.25;91.35
57709;SHT35;42558;52.388;13.390;2023-10-31T07:38:33;12.21;90.67
57709;SHT35;42558;52.388;13.390;2023-10-31T07:41:02;12.19;90.42
57709;SHT35;42558;52.388;13.390;2023-10-31T07:43:30;12.16;90.21
57709;SHT35;42558;52.388;13.390;2023-10-31T07:45:58;12.17;89.98
57709;SHT35;42558;52.388;13.390;2023-10-31T07:48:27;12.16;89.79
57709;SHT35;42558;52.388;13.390;2023-10-31T07:50:55;12.11;89.67
57709;SHT35;42558;52.388;13.390;2023-10-31T07:53:24;12.04;88.92
57709;SHT35;42558;52.388;13.390;2023-10-31T07:55:52;12.07;88.48
57709;SHT35;42558;52.388;13.390;2023-10-31T07:58:21;12.03;88.68
57709;SHT35;42558;52.388;13.390;2023-10-31T08:00:49;11.97;88.44
57709;SHT35;42558;52.388;13.390;2023-10-31T08:03:18;11.95;87.81
57709;SHT35;42558;52.388;13.390;2023-10-31T08:05:46;11.94;86.83
57709;SHT35;42558;52.388;13.390;2023-10-31T08:08:14;11.92;85.92
57709;SHT35;42558;52.388;13.390;2023-10-31T08:10:43;11.93;85.41
57709;SHT35;42558;52.388;13.390;2023-10-31T08:13:11;11.94;85.36
57709;SHT35;42558;52.388;13.390;2023-10-31T08:15:39;11.93;85.57
57709;SHT35;42558;52.388;13.390;2023-10-31T08:18:08;11.94;84.78
57709;SHT35;42558;52.388;13.390;2023-10-31T08:20:36;11.96;85.00
57709;SHT35;42558;52.388;13.390;2023-10-31T08:23:05;11.96;84.45
57709;SHT35;42558;52.388;13.390;2023-10-31T08:25:33;11.96;84.09
57709;SHT35;42558;52.388;13.390;2023-10-31T08:28:01;11.98;83.65
57709;SHT35;42558;52.388;13.390;2023-10-31T08:30:30;12.09;83.17
57709;SHT35;42558;52.388;13.390;2023-10-31T08:32:58;12.39;82.06
57709;SHT35;42558;52.388;13.390;2023-10-31T08:35:27;12.30;81.17
57709;SHT35;42558;52.388;13.390;2023-10-31T08:37:55;12.27;80.99
57709;SHT35;42558;52.388;13.390;2023-10-31T08:40:24;12.36;81.71
57709;SHT35;42558;52.388;13.390;2023-10-31T08:42:52;12.23;80.80
57709;SHT35;42558;52.388;13.390;2023-10-31T08:45:20;12.25;80.07
57709;SHT35;42558;52.388;13.390;2023-10-31T08:47:52;13.05;77.44
57709;SHT35;42558;52.388;13.390;2023-10-31T08:50:20;14.28;72.40
57709;SHT35;42558;52.388;13.390;2023-10-31T08:52:49;13.61;74.15
57709;SHT35;42558;52.388;13.390;2023-10-31T08:55:17;12.85;75.80
57709;SHT35;42558;52.388;13.390;2023-10-31T08:57:45;12.66;77.18
57709;SHT35;42558;52.388;13.390;2023-10-31T09:00:14;12.53;77.80
57709;SHT35;42558;52.388;13.390;2023-10-31T09:02:42;12.39;77.25
57709;SHT35;42558;52.388;13.390;2023-10-31T09:05:11;12.46;78.18
57709;SHT35;42558;52.388;13.390;2023-10-31T09:07:39;12.31;77.48
57709;SHT35;42558;52.388;13.390;2023-10-31T09:10:08;12.29;77.69
57709;SHT35;42558;52.388;13.390;2023-10-31T09:12:36;12.26;77.67
57709;SHT35;42558;52.388;13.390;2023-10-31T09:15:04;12.30;78.13
57709;SHT35;42558;52.388;13.390;2023-10-31T09:17:33;12.34;78.19
57709;SHT35;42558;52.388;13.390;2023-10-31T09:20:01;12.35;77.02
57709;SHT35;42558;52.388;13.390;2023-10-31T09:22:30;12.42;77.16
57709;SHT35;42558;52.388;13.390;2023-10-31T09:24:58;12.44;76.81
57709;SHT35;42558;52.388;13.390;2023-10-31T09:27:26;12.51;77.09
57709;SHT35;42558;52.388;13.390;2023-10-31T09:29:55;12.58;77.49
57709;SHT35;42558;52.388;13.390;2023-10-31T09:32:23;12.64;76.70
57709;SHT35;42558;52.388;13.390;2023-10-31T09:34:52;12.69;76.38
57709;SHT35;42558;52.388;13.390;2023-10-31T09:37:20;12.71;76.40
57709;SHT35;42558;52.388;13.390;2023-10-31T09:39:49;12.74;76.17
57709;SHT35;42558;52.388;13.390;2023-10-31T09:42:17;12.82;76.14
57709;SHT35;42558;52.388;13.390;2023-10-31T09:44:45;12.87;76.14
57709;SHT35;42558;52.388;13.390;2023-10-31T09:47:14;12.85;75.69
57709;SHT35;42558;52.388;13.390;2023-10-31T09:49:42;12.92;75.80
57709;SHT35;42558;52.388;13.390;2023-10-31T09:52:14;12.89;75.63
57709;SHT35;42558;52.388;13.390;2023-10-31T09:54:42;12.89;75.57
57709;SHT35;42558;52.388;13.390;2023-10-31T09:57:15;12.95;75.55
57709;SHT35;42558;52.388;13.390;2023-10-31T09:59:47;12.83;75.88
57709;SHT35;42558;52.388;13.390;2023-10-31T10:02:17;12.73;76.48
57709;SHT35;42558;52.388;13.390;2023-10-31T10:04:50;12.67;76.31
57709;SHT35;42558;52.388;13.390;2023-10-31T10:07:18;12.69;76.12
57709;SHT35;42558;52.388;13.390;2023-10-31T10:09:49;12.66;75.98
57709;SHT35;42558;52.388;13.390;2023-10-31T10:12:19;12.70;76.20
57709;SHT35;42558;52.388;13.390;2023-10-31T10:14:49;12.84;76.22
57709;SHT35;42558;52.388;13.390;2023-10-31T10:17:23;12.84;74.72
57709;SHT35;42558;52.388;13.390;2023-10-31T10:20:07;12.92;74.97
57709;SHT35;42558;52.388;13.390;2023-10-31T10:22:43;12.98;74.42
57709;SHT35;42558;52.388;13.390;2023-10-31T10:25:14;12.91;73.08
57709;SHT35;42558;52.388;13.390;2023-10-31T10:27:48;12.87;72.54
57709;SHT35;42558;52.388;13.390;2023-10-31T10:30:16;12.85;73.42
57709;SHT35;42558;52.388;13.390;2023-10-31T10:32:45;12.81;74.15
57709;SHT35;42558;52.388;13.390;2023-10-31T10:35:13;12.84;73.40
57709;SHT35;42558;52.388;13.390;2023-10-31T10:37:42;12.90;73.24
57709;SHT35;42558;52.388;13.390;2023-10-31T10:40:13;12.94;73.35
57709;SHT35;42558;52.388;13.390;2023-10-31T10:42:46;12.94;74.34
57709;SHT35;42558;52.388;13.390;2023-10-31T10:45:18;13.01;73.88
57709;SHT35;42558;52.388;13.390;2023-10-31T10:47:50;13.06;73.37
57709;SHT35;42558;52.388;13.390;2023-10-31T10:50:24;13.01;73.43
57709;SHT35;42558;52.388;13.390;2023-10-31T10:53:05;12.98;73.25
57709;SHT35;42558;52.388;13.390;2023-10-31T10:55:51;13.03;73.19
57709;SHT35;42558;52.388;13.390;2023-10-31T10:58:33;13.08;73.80
57709;SHT35;42558;52.388;13.390;2023-10-31T11:01:20;13.14;72.85
57709;SHT35;42558;52.388;13.390;2023-10-31T11:03:48;13.36;73.24
57709;SHT35;42558;52.388;13.390;2023-10-31T11:06:19;13.49;71.90
57709;SHT35;42558;52.388;13.390;2023-10-31T11:08:48;13.68;72.11
57709;SHT35;42558;52.388;13.390;2023-10-31T11:11:22;13.83;71.50
57709;SHT35;42558;52.388;13.390;2023-10-31T11:13:52;13.89;70.79
57709;SHT35;42558;52.388;13.390;2023-10-31T11:16:34;13.91;70.84
57709;SHT35;42558;52.388;13.390;2023-10-31T11:19:15;13.89;71.25
57709;SHT35;42558;52.388;13.390;2023-10-31T11:21:55;13.69;71.16
57709;SHT35;42558;52.388;13.390;2023-10-31T11:24:32;13.65;70.73
57709;SHT35;42558;52.388;13.390;2023-10-31T11:27:04;13.63;71.79
57709;SHT35;42558;52.388;13.390;2023-10-31T11:29:37;13.58;71.27
57709;SHT35;42558;52.388;13.390;2023-10-31T11:32:09;13.51;70.90
57709;SHT35;42558;52.388;13.390;2023-10-31T11:34:41;13.44;71.25
57709;SHT35;42558;52.388;13.390;2023-10-31T11:37:19;13.38;71.67
57709;SHT35;42558;52.388;13.390;2023-10-31T11:42:43;13.17;72.49
57709;SHT35;42558;52.388;13.390;2023-10-31T11:45:25;13.12;72.66
57709;SHT35;42558;52.388;13.390;2023-10-31T11:47:59;13.08;73.92
57709;SHT35;42558;52.388;13.390;2023-10-31T11:50:30;12.98;73.97
57709;SHT35;42558;52.388;13.390;2023-10-31T11:53:02;12.98;74.45
57709;SHT35;42558;52.388;13.390;2023-10-31T11:55:41;12.87;75.34
57709;SHT35;42558;52.388;13.390;2023-10-31T11:58:20;12.83;75.91
57709;SHT35;42558;52.388;13.390;2023-10-31T12:00:51;12.73;76.55
57709;SHT35;42558;52.388;13.390;2023-10-31T12:03:40;12.70;76.74
57709;SHT35;42558;52.388;13.390;2023-10-31T12:06:17;12.64;77.54
57709;SHT35;42558;52.388;13.390;2023-10-31T12:08:49;12.67;78.07
57709;SHT35;42558;52.388;13.390;2023-10-31T12:11:21;12.80;77.27
57709;SHT35;42558;52.388;13.390;2023-10-31T12:13:58;13.01;77.02
57709;SHT35;42558;52.388;13.390;2023-10-31T12:16:33;13.28;76.98
57709;SHT35;42558;52.388;13.390;2023-10-31T12:19:04;13.32;75.36
57709;SHT35;42558;52.388;13.390;2023-10-31T12:24:10;12.99;75.37
57709;SHT35;42558;52.388;13.390;2023-10-31T12:26:41;12.88;75.64
57709;SHT35;42558;52.388;13.390;2023-10-31T12:29:12;12.86;75.04
57709;SHT35;42558;52.388;13.390;2023-10-31T12:31:47;12.84;75.05
57709;SHT35;42558;52.388;13.390;2023-10-31T12:34:22;12.79;75.34
57709;SHT35;42558;52.388;13.390;2023-10-31T12:36:54;12.77;73.64
57709;SHT35;42558;52.388;13.390;2023-10-31T12:39:28;12.78;73.65
57709;SHT35;42558;52.388;13.390;2023-10-31T12:41:59;12.79;73.76
57709;SHT35;42558;52.388;13.390;2023-10-31T12:44:29;12.83;73.96
57709;SHT35;42558;52.388;13.390;2023-10-31T12:47:03;12.89;73.61
57709;SHT35;42558;52.388;13.390;2023-10-31T12:49:37;12.93;74.08
57709;SHT35;42558;52.388;13.390;2023-10-31T12:52:08;12.88;74.79
57709;SHT35;42558;52.388;13.390;2023-10-31T12:54:38;12.78;74.89
57709;SHT35;42558;52.388;13.390;2023-10-31T12:57:08;12.77;74.88
57709;SHT35;42558;52.388;13.390;2023-10-31T12:59:40;12.74;74.00
57709;SHT35;42558;52.388;13.390;2023-10-31T13:02:09;12.73;74.42
57709;SHT35;42558;52.388;13.390;2023-10-31T13:04:47;12.71;73.00
57709;SHT35;42558;52.388;13.390;2023-10-31T13:07:25;12.80;72.12
57709;SHT35;42558;52.388;13.390;2023-10-31T13:09:57;12.86;72.33
57709;SHT35;42558;52.388;13.390;2023-10-31T13:12:29;12.93;71.79
57709;SHT35;42558;52.388;13.390;2023-10-31T13:15:00;13.02;72.15
57709;SHT35;42558;52.388;13.390;2023-10-31T13:17:30;13.03;73.40
57709;SHT35;42558;52.388;13.390;2023-10-31T13:20:01;13.00;73.07
57709;SHT35;42558;52.388;13.390;2023-10-31T13:22:37;12.95;73.17
57709;SHT35;42558;52.388;13.390;2023-10-31T13:25:09;12.91;73.60
57709;SHT35;42558;52.388;13.390;2023-10-31T13:27:43;12.80;73.13
57709;SHT35;42558;52.388;13.390;2023-10-31T13:30:16;12.81;73.07
57709;SHT35;42558;52.388;13.390;2023-10-31T13:32:47;12.75;73.66
57709;SHT35;42558;52.388;13.390;2023-10-31T13:35:17;12.66;73.79
57709;SHT35;42558;52.388;13.390;2023-10-31T13:37:50;12.61;73.89
57709;SHT35;42558;52.388;13.390;2023-10-31T13:40:21;12.53;73.94
57709;SHT35;42558;52.388;13.390;2023-10-31T13:42:50;12.53;74.17
57709;SHT35;42558;52.388;13.390;2023-10-31T13:45:18;12.52;74.12
57709;SHT35;42558;52.388;13.390;2023-10-31T13:47:47;12.50;74.22
57709;SHT35;42558;52.388;13.390;2023-10-31T13:50:15;12.48;74.39
57709;SHT35;42558;52.388;13.390;2023-10-31T13:52:44;12.51;74.65
57709;SHT35;42558;52.388;13.390;2023-10-31T13:55:12;12.50;74.90
57709;SHT35;42558;52.388;13.390;2023-10-31T13:57:41;12.44;74.58
57709;SHT35;42558;52.388;13.390;2023-10-31T14:00:09;12.43;74.66
57709;SHT35;42558;52.388;13.390;2023-10-31T14:02:46;12.41;75.05
57709;SHT35;42558;52.388;13.390;2023-10-31T14:05:16;12.37;75.21
57709;SHT35;42558;52.388;13.390;2023-10-31T14:07:46;12.31;75.57
57709;SHT35;42558;52.388;13.390;2023-10-31T14:10:16;12.24;76.32
57709;SHT35;42558;52.388;13.390;2023-10-31T14:12:48;12.11;77.97
57709;SHT35;42558;52.388;13.390;2023-10-31T14:15:16;11.90;79.68
57709;SHT35;42558;52.388;13.390;2023-10-31T14:17:45;11.69;81.48
57709;SHT35;42558;52.388;13.390;2023-10-31T14:20:13;11.50;82.95
57709;SHT35;42558;52.388;13.390;2023-10-31T14:22:46;11.39;84.06
57709;SHT35;42558;52.388;13.390;2023-10-31T14:25:18;11.39;84.22
57709;SHT35;42558;52.388;13.390;2023-10-31T14:27:48;11.41;84.30
57709;SHT35;42558;52.388;13.390;2023-10-31T14:30:17;11.43;84.27
57709;SHT35;42558;52.388;13.390;2023-10-31T14:32:48;11.44;83.55
57709;SHT35;42558;52.388;13.390;2023-10-31T14:35:18;11.48;83.82
57709;SHT35;42558;52.388;13.390;2023-10-31T14:37:48;11.45;83.03
57709;SHT35;42558;52.388;13.390;2023-10-31T14:40:17;11.46;82.88
57709;SHT35;42558;52.388;13.390;2023-10-31T14:42:47;11.48;82.77
57709;SHT35;42558;52.388;13.390;2023-10-31T14:45:18;11.44;83.11
57709;SHT35;42558;52.388;13.390;2023-10-31T14:47:48;11.35;84.12
57709;SHT35;42558;52.388;13.390;2023-10-31T14:50:18;11.24;84.58
57709;SHT35;42558;52.388;13.390;2023-10-31T14:52:53;11.18;85.37
57709;SHT35;42558;52.388;13.390;2023-10-31T14:55:23;11.12;85.86
57709;SHT35;42558;52.388;13.390;2023-10-31T14:57:52;11.08;86.31
57709;SHT35;42558;52.388;13.390;2023-10-31T15:00:22;11.00;86.65
57709;SHT35;42558;52.388;13.390;2023-10-31T15:02:52;10.97;86.87
57709;SHT35;42558;52.388;13.390;2023-10-31T15:05:23;10.94;87.33
57709;SHT35;42558;52.388;13.390;2023-10-31T15:07:53;10.91;87.87
57709;SHT35;42558;52.388;13.390;2023-10-31T15:10:25;10.81;88.33
57709;SHT35;42558;52.388;13.390;2023-10-31T15:12:58;10.69;89.14
57709;SHT35;42558;52.388;13.390;2023-10-31T15:15:28;10.67;89.49
57709;SHT35;42558;52.388;13.390;2023-10-31T15:17:57;10.66;89.62
57709;SHT35;42558;52.388;13.390;2023-10-31T15:20:27;10.66;89.70
57709;SHT35;42558;52.388;13.390;2023-10-31T15:22:57;10.69;89.84
57709;SHT35;42558;52.388;13.390;2023-10-31T15:25:27;10.67;89.91
57709;SHT35;42558;52.388;13.390;2023-10-31T15:27:57;10.67;90.00
57709;SHT35;42558;52.388;13.390;2023-10-31T15:30:27;10.68;90.01
57709;SHT35;42558;52.388;13.390;2023-10-31T15:32:57;10.65;90.02
57709;SHT35;42558;52.388;13.390;2023-10-31T15:35:28;10.65;90.07
57709;SHT35;42558;52.388;13.390;2023-10-31T15:37:58;10.60;89.96
57709;SHT35;42558;52.388;13.390;2023-10-31T15:40:28;10.60;89.93